Groton Long Point, Connecticut
Current Conditions -  °F | °C
As of 3:56 PM on Tuesday 27 Jan 2015 (Local Time) from KGON Reporting Station
Light Snow Light Snow  
Wind Chill:   Ceiling: 1900
Heat Index: 20°   Visibility: 1mi
Dew Point: 17°   Wind: 15mph
Humidity: 89%   Direction: 330°NNW
Pressure: 29.54"   Gusts: 26mph
Location:  41.3595°N, 72.0439°W
Report Text: KGON 272056Z 33013G23KT 1SM R05/3000VP6000FT -SN BR VV019 M07/M08 A2954 RMK AO2 SLP004 P0000 60001 T10671083 51007 $
Loading
Personal Weather Stations






























Interactive Weather Map New forecast layout! Learn more

10-Day Weather Forecast

Advertisements
Track Severe Weather on mobile